Time;durP1;ratioP1;P1;durP2;ratioP2;P2;SDS_P1;SDS_P2;PMS_P1;PMS_P2;Temp;Humidity;BMP_temperature;BMP_pressure;BME280_temperature;BME280_humidity;BME280_pressure;Samples;Min_cycle;Max_cycle;Signal;HPM_P1;HPM_P2
2024/01/30 00:02:16;;;;;;;25.77;9.63;;;;;;;1.12;100.00;99665.94;5060957;28;20035;-85
2024/01/30 00:04:42;;;;;;;22.17;10.82;;;;;;;1.17;100.00;99652.81;5063114;28;20605;-85
2024/01/30 00:07:08;;;;;;;21.85;9.13;;;;;;;1.18;100.00;99666.00;5071739;28;20035;-85
2024/01/30 00:09:33;;;;;;;19.23;9.45;;;;;;;1.16;100.00;99669.50;5083639;28;20043;-86
2024/01/30 00:11:59;;;;;;;14.90;7.40;;;;;;;1.03;100.00;99655.31;5065870;28;20040;-86
2024/01/30 00:14:24;;;;;;;17.58;7.82;;;;;;;1.03;100.00;99650.03;5072883;28;20034;-85
2024/01/30 00:16:53;;;;;;;18.88;7.97;;;;;;;1.17;100.00;99666.84;5073165;28;20549;-84
2024/01/30 00:19:19;;;;;;;18.55;7.47;;;;;;;1.16;100.00;99667.75;5061154;28;20039;-85
2024/01/30 00:21:44;;;;;;;16.55;7.40;;;;;;;1.12;100.00;99665.94;5059673;28;20032;-85
2024/01/30 00:24:10;;;;;;;16.80;7.93;;;;;;;1.20;100.00;99663.38;5066706;28;20023;-86
2024/01/30 00:26:36;;;;;;;18.67;7.88;;;;;;;1.27;100.00;99665.19;5061630;28;20086;-86
2024/01/30 00:29:01;;;;;;;16.58;8.57;;;;;;;1.30;100.00;99658.19;5069783;28;20543;-85
2024/01/30 00:31:27;;;;;;;19.20;8.57;;;;;;;1.31;100.00;99662.59;5067522;28;20097;-86
2024/01/30 00:33:54;;;;;;;19.08;8.13;;;;;;;1.06;100.00;99642.16;5081522;28;20047;-86
2024/01/30 00:36:20;;;;;;;20.33;8.20;;;;;;;1.12;100.00;99643.97;5058118;28;20420;-86
2024/01/30 00:38:45;;;;;;;16.40;7.38;;;;;;;1.16;100.00;99651.94;5065784;28;20131;-85
2024/01/30 00:41:11;;;;;;;15.88;7.68;;;;;;;1.13;100.00;99632.56;5067177;28;20040;-85
2024/01/30 00:43:37;;;;;;;15.18;7.35;;;;;;;1.05;100.00;99632.47;5063345;28;20100;-86
2024/01/30 00:46:03;;;;;;;16.73;7.78;;;;;;;1.12;100.00;99651.88;5064085;28;20055;-85
2024/01/30 00:48:28;;;;;;;14.32;7.50;;;;;;;1.16;100.00;99651.03;5065980;28;20028;-85
2024/01/30 00:50:54;;;;;;;15.00;7.07;;;;;;;1.09;100.00;99647.47;5062943;28;20085;-86
2024/01/30 00:53:20;;;;;;;15.13;6.93;;;;;;;1.03;100.00;99640.38;5057936;28;20031;-86
2024/01/30 00:55:45;;;;;;;14.57;7.15;;;;;;;1.16;100.00;99649.28;5058017;28;20040;-87
2024/01/30 00:58:11;;;;;;;13.73;7.35;;;;;;;1.20;100.00;99644.94;5062614;28;20094;-86
2024/01/30 01:00:37;;;;;;;17.10;7.28;;;;;;;1.15;100.00;99634.34;5064058;28;20024;-86
2024/01/30 01:03:02;;;;;;;13.20;7.03;;;;;;;1.29;100.00;99645.00;5064973;28;20020;-84
2024/01/30 01:05:28;;;;;;;17.73;7.95;;;;;;;1.29;100.00;99645.91;5058469;28;20114;-85
2024/01/30 01:07:54;;;;;;;19.13;8.27;;;;;;;1.23;100.00;99637.91;5068041;28;20028;-85
2024/01/30 01:10:19;;;;;;;18.45;8.18;;;;;;;1.23;100.00;99648.44;5064932;28;20028;-85
2024/01/30 01:12:46;;;;;;;18.08;7.93;;;;;;;1.32;100.00;99643.28;5073292;28;20039;-86
2024/01/30 01:15:11;;;;;;;18.25;8.75;;;;;;;1.24;100.00;99644.06;5057042;28;20039;-86
2024/01/30 01:17:38;;;;;;;22.15;10.00;;;;;;;1.31;100.00;99635.34;5060268;28;20488;-86
2024/01/30 01:20:05;;;;;;;32.55;11.90;;;;;;;1.27;100.00;99623.91;5058704;28;20489;-86
2024/01/30 01:22:31;;;;;;;21.20;8.75;;;;;;;1.24;100.00;99621.25;5066758;28;20065;-86
2024/01/30 01:24:56;;;;;;;20.33;7.85;;;;;;;1.37;100.00;99638.94;5072749;28;20043;-86
2024/01/30 01:27:22;;;;;;;16.98;8.02;;;;;;;1.38;100.00;99630.16;5063412;28;20042;-86
2024/01/30 01:29:48;;;;;;;15.65;7.57;;;;;;;1.32;100.00;99638.03;5066654;28;20027;-86
2024/01/30 01:32:13;;;;;;;15.30;6.38;;;;;;;1.33;100.00;99639.75;5064168;28;20039;-86
2024/01/30 01:34:39;;;;;;;14.10;6.65;;;;;;;1.34;100.00;99640.66;5065835;28;20115;-85
2024/01/30 01:37:05;;;;;;;17.67;7.03;;;;;;;1.32;100.00;99638.03;5067863;28;20059;-86
2024/01/30 01:39:30;;;;;;;19.77;8.48;;;;;;;1.32;100.00;99643.28;5063839;28;20051;-85
2024/01/30 01:41:56;;;;;;;19.42;7.80;;;;;;;1.32;100.00;99632.75;5072738;28;20036;-86
2024/01/30 01:44:21;;;;;;;18.80;7.90;;;;;;;1.28;100.00;99622.16;5063757;28;20142;-86
2024/01/30 01:46:47;;;;;;;17.23;7.57;;;;;;;1.38;100.00;99630.16;5054877;28;20089;-86
2024/01/30 01:49:14;;;;;;;13.75;6.88;;;;;;;1.37;100.00;99633.66;5063422;28;20038;-86
2024/01/30 01:51:40;;;;;;;16.10;7.43;;;;;;;1.24;100.00;99634.41;5067822;28;20031;-86
2024/01/30 01:54:06;;;;;;;14.95;7.25;;;;;;;1.23;100.00;99640.53;5058597;28;20040;-86
2024/01/30 01:56:37;;;;;;;13.88;6.88;;;;;;;1.29;100.00;99645.00;5054568;28;20475;-85
2024/01/30 01:59:08;;;;;;;18.27;7.88;;;;;;;1.24;100.00;99634.41;5067875;28;20392;-86
2024/01/30 02:01:34;;;;;;;16.52;8.32;;;;;;;1.30;100.00;99636.22;5056404;28;20029;-86
2024/01/30 02:04:00;;;;;;;19.35;8.93;;;;;;;1.23;100.00;99634.41;5084103;28;20113;-86
2024/01/30 02:06:27;;;;;;;17.83;8.35;;;;;;;1.27;100.00;99647.63;5072676;28;20025;-86
2024/01/30 02:08:53;;;;;;;18.52;7.90;;;;;;;1.26;100.00;99643.22;5070347;28;20020;-86
2024/01/30 02:11:19;;;;;;;16.00;8.05;;;;;;;1.24;100.00;99634.41;5067861;28;20388;-86
2024/01/30 02:13:45;;;;;;;18.80;8.95;;;;;;;1.29;100.00;99647.66;5059953;28;20039;-86
2024/01/30 02:16:10;;;;;;;26.48;10.43;;;;;;;1.36;100.00;99646.81;5059134;28;20036;-87
2024/01/30 02:18:41;;;;;;;22.55;10.55;;;;;;;1.23;100.00;99632.63;5079260;28;20410;-82
2024/01/30 02:21:08;;;;;;;17.77;7.97;;;;;;;1.12;100.00;99649.25;5066293;28;20035;-84
2024/01/30 02:23:34;;;;;;;33.25;15.63;;;;;;;1.16;100.00;99651.03;5054612;28;20062;-85
2024/01/30 02:26:00;;;;;;;18.98;8.35;;;;;;;1.16;100.00;99645.78;5073231;28;20048;-86
2024/01/30 02:28:27;;;;;;;15.32;7.22;;;;;;;1.18;100.00;99644.91;5063665;28;20045;-87
2024/01/30 02:30:52;;;;;;;14.20;6.82;;;;;;;1.24;100.00;99651.97;5086427;28;20399;-87
2024/01/30 02:33:27;;;;;;;21.08;8.38;;;;;;;1.22;100.00;99640.56;5063102;28;20119;-87
2024/01/30 02:35:53;;;;;;;20.80;9.90;;;;;;;1.18;100.00;99647.53;5062572;28;20047;-86
2024/01/30 02:38:18;;;;;;;14.70;7.18;;;;;;;1.14;100.00;99648.38;5073891;28;20049;-87
2024/01/30 02:40:44;;;;;;;14.70;7.43;;;;;;;1.05;100.00;99641.28;5065897;28;20031;-85
2024/01/30 02:43:10;;;;;;;15.00;7.03;;;;;;;1.06;100.00;99655.34;5087777;28;20024;-86
2024/01/30 02:45:36;;;;;;;15.70;7.18;;;;;;;1.18;100.00;99660.72;5058028;28;20086;-86
2024/01/30 02:48:01;;;;;;;16.17;7.25;;;;;;;1.09;100.00;99653.63;5068329;28;20100;-86
2024/01/30 02:50:27;;;;;;;20.50;7.97;;;;;;;1.13;100.00;99653.66;5093924;28;20551;-85
2024/01/30 02:52:53;;;;;;;16.52;7.18;;;;;;;1.12;100.00;99639.59;5070845;28;20069;-85
2024/01/30 02:55:18;;;;;;;16.13;7.40;;;;;;;1.21;100.00;99651.94;5063292;28;20491;-85
2024/01/30 02:57:44;;;;;;;18.95;7.28;;;;;;;1.05;100.00;99638.63;5057671;28;20106;-86
2024/01/30 03:00:10;;;;;;;16.40;7.57;;;;;;;1.14;100.00;99648.38;5068772;28;20032;-85
2024/01/30 03:02:36;;;;;;;16.55;8.38;;;;;;;1.27;100.00;99655.53;5066282;28;20035;-86
2024/01/30 03:05:03;;;;;;;18.65;8.55;;;;;;;1.24;100.00;99659.88;5056153;28;20052;-86
2024/01/30 03:07:29;;;;;;;15.43;7.20;;;;;;;1.25;100.00;99654.66;5056741;28;20486;-85
2024/01/30 03:09:55;;;;;;;18.67;8.52;;;;;;;1.20;100.00;99645.78;5059397;28;20064;-85
2024/01/30 03:12:21;;;;;;;17.42;8.70;;;;;;;1.23;100.00;99643.19;5069603;28;20032;-85
2024/01/30 03:14:47;;;;;;;19.50;8.15;;;;;;;1.19;100.00;99651.97;5059769;28;20032;-86
2024/01/30 03:17:12;;;;;;;20.75;9.25;;;;;;;1.22;100.00;99651.97;5066266;28;20032;-87
2024/01/30 03:19:38;;;;;;;24.73;9.80;;;;;;;1.13;100.00;99654.53;5064816;28;20505;-86
2024/01/30 03:22:04;;;;;;;25.15;10.82;;;;;;;1.20;100.00;99658.13;5064252;28;20029;-87
2024/01/30 03:24:29;;;;;;;25.25;10.57;;;;;;;1.17;100.00;99652.81;5069578;28;20051;-86
2024/01/30 03:26:55;;;;;;;20.70;9.45;;;;;;;1.27;100.00;99660.81;5057803;28;20123;-86
2024/01/30 03:29:20;;;;;;;18.77;8.60;;;;;;;1.14;100.00;99645.75;5074291;28;20024;-87
2024/01/30 03:31:47;;;;;;;19.88;9.60;;;;;;;1.10;100.00;99643.97;5059920;28;20115;-82
2024/01/30 03:34:12;;;;;;;20.38;8.20;;;;;;;1.13;100.00;99662.44;5066173;28;20031;-86
2024/01/30 03:36:38;;;;;;;15.48;8.02;;;;;;;0.99;100.00;99649.13;5072141;28;20023;-86
2024/01/30 03:39:04;;;;;;;16.05;7.63;;;;;;;1.02;100.00;99653.53;5064460;28;20384;-86
2024/01/30 03:41:33;;;;;;;14.82;7.15;;;;;;;0.98;100.00;99649.13;5074355;28;20107;-85
2024/01/30 03:43:58;;;;;;;17.90;8.10;;;;;;;0.77;100.00;99614.66;5067066;28;20107;-85
2024/01/30 03:46:24;;;;;;;25.63;10.02;;;;;;;1.04;100.00;99657.97;5056618;28;20083;-85
2024/01/30 03:48:50;;;;;;;22.85;11.32;;;;;;;0.98;100.00;99649.13;5065845;28;20036;-85
2024/01/30 03:51:15;;;;;;;17.50;8.98;;;;;;;0.76;100.00;99633.97;5057403;28;20032;-86
2024/01/30 03:53:42;;;;;;;20.48;9.32;;;;;;;0.94;100.00;99656.09;5063108;28;20115;-86
2024/01/30 03:56:08;;;;;;;19.50;8.70;;;;;;;0.89;100.00;99641.13;5060449;28;20021;-86
2024/01/30 03:58:37;;;;;;;20.00;9.00;;;;;;;0.98;100.00;99643.84;5067394;28;20102;-86
2024/01/30 04:01:03;;;;;;;17.35;8.43;;;;;;;1.03;100.00;99644.78;5076905;28;20024;-87
2024/01/30 04:03:29;;;;;;;19.38;8.82;;;;;;;0.99;100.00;99643.84;5078926;28;20027;-85
2024/01/30 04:05:54;;;;;;;19.55;9.10;;;;;;;1.00;100.00;99647.38;5091430;28;20020;-85
2024/01/30 04:08:21;;;;;;;21.00;9.20;;;;;;;0.91;100.00;99647.28;5065758;28;20482;-84
2024/01/30 04:10:47;;;;;;;23.80;9.35;;;;;;;0.90;100.00;99649.03;5062378;28;20025;-84
2024/01/30 04:13:13;;;;;;;19.58;8.80;;;;;;;0.94;100.00;99656.09;5066568;28;20522;-85
2024/01/30 04:15:39;;;;;;;19.50;8.27;;;;;;;0.95;100.00;99639.41;5057626;28;20024;-85
2024/01/30 04:18:08;;;;;;;25.70;9.07;;;;;;;0.98;100.00;99638.59;5089455;28;20465;-85
2024/01/30 04:20:34;;;;;;;20.45;7.57;;;;;;;1.05;100.00;99653.56;5064680;28;20074;-86
2024/01/30 04:22:59;;;;;;;15.68;8.10;;;;;;;1.03;100.00;99644.78;5063475;28;20024;-86
2024/01/30 04:25:25;;;;;;;21.25;8.90;;;;;;;0.96;100.00;99643.81;5065584;28;20388;-87
2024/01/30 04:27:50;;;;;;;26.48;9.93;;;;;;;0.97;100.00;99649.97;5070319;28;20028;-87
2024/01/30 04:30:16;;;;;;;25.60;9.50;;;;;;;0.89;100.00;99656.94;5063884;28;20032;-87
2024/01/30 04:32:42;;;;;;;22.85;10.38;;;;;;;0.88;100.00;99660.44;5073655;28;20522;-85
2024/01/30 04:35:08;;;;;;;19.90;9.52;;;;;;;0.92;100.00;99655.19;5071901;28;20030;-86
2024/01/30 04:37:34;;;;;;;19.75;8.80;;;;;;;0.92;100.00;99670.13;5057049;28;20099;-79
2024/01/30 04:39:59;;;;;;;19.75;8.60;;;;;;;0.92;100.00;99657.81;5072482;28;20026;-79
2024/01/30 04:42:25;;;;;;;19.40;8.77;;;;;;;1.00;100.00;99665.81;5079422;28;20024;-87
2024/01/30 04:44:51;;;;;;;19.65;9.18;;;;;;;0.97;100.00;99668.41;5059377;28;20023;-84
2024/01/30 04:47:16;;;;;;;17.38;9.02;;;;;;;1.00;100.00;99679.00;5074281;28;20075;-86
2024/01/30 04:49:42;;;;;;;20.65;9.57;;;;;;;0.99;100.00;99669.31;5087535;28;20404;-85
2024/01/30 04:52:08;;;;;;;18.63;8.32;;;;;;;1.02;100.00;99674.59;5054043;28;20060;-85
2024/01/30 04:54:35;;;;;;;21.38;9.13;;;;;;;1.08;100.00;99675.56;5055056;28;20031;-84
2024/01/30 04:57:01;;;;;;;21.10;8.30;;;;;;;1.06;100.00;99673.78;5071136;28;20031;-85
2024/01/30 04:59:26;;;;;;;36.22;12.55;;;;;;;1.02;100.00;99671.97;5078913;28;20488;-85
2024/01/30 05:01:52;;;;;;;26.35;11.32;;;;;;;1.01;100.00;99672.88;5071062;28;20028;-85
2024/01/30 05:04:18;;;;;;;26.65;12.75;;;;;;;0.93;100.00;99669.25;5072376;28;20112;-86
2024/01/30 05:06:43;;;;;;;30.15;12.13;;;;;;;0.92;100.00;99668.34;5065729;28;20067;-84
2024/01/30 05:09:09;;;;;;;26.23;12.73;;;;;;;1.06;100.00;99676.41;5074476;28;20069;-83
2024/01/30 05:11:38;;;;;;;22.83;11.02;;;;;;;1.13;100.00;99683.53;5071140;28;20033;-85
2024/01/30 05:14:05;;;;;;;22.65;10.57;;;;;;;1.07;100.00;99668.53;5068142;28;20115;-83
2024/01/30 05:16:31;;;;;;;24.27;10.77;;;;;;;1.10;100.00;99686.13;5070544;28;20070;-79
2024/01/30 05:18:57;;;;;;;19.92;9.77;;;;;;;1.17;100.00;99693.19;5076394;28;20025;-86
2024/01/30 05:21:22;;;;;;;18.35;8.82;;;;;;;0.99;100.00;99675.47;5064415;28;20479;-85
2024/01/30 05:23:48;;;;;;;19.55;8.93;;;;;;;0.90;100.00;99653.41;5079823;28;20046;-83
2024/01/30 05:26:16;;;;;;;25.80;9.50;;;;;;;0.99;100.00;99690.38;5056487;28;20073;-86
2024/01/30 05:28:44;;;;;;;18.40;9.27;;;;;;;0.97;100.00;99681.59;5056398;28;20479;-85
2024/01/30 05:31:10;;;;;;;21.15;8.93;;;;;;;1.05;100.00;99695.72;5084433;28;20035;-86
2024/01/30 05:33:36;;;;;;;18.60;7.95;;;;;;;1.06;100.00;99692.22;5055720;28;20476;-85
2024/01/30 05:36:01;;;;;;;20.27;9.45;;;;;;;1.11;100.00;99679.97;5066770;28;20032;-85
2024/01/30 05:38:31;;;;;;;17.38;8.13;;;;;;;0.91;100.00;99673.63;5057687;28;20032;-85
2024/01/30 05:41:00;;;;;;;22.67;10.05;;;;;;;0.95;100.00;99688.63;5059611;28;20026;-85
2024/01/30 05:43:26;;;;;;;33.13;15.13;;;;;;;0.88;100.00;99686.78;5083988;28;20035;-86
2024/01/30 05:45:52;;;;;;;21.17;10.32;;;;;;;0.83;100.00;99676.16;5058724;28;20032;-86
2024/01/30 05:48:18;;;;;;;22.13;10.02;;;;;;;0.86;100.00;99668.28;5066067;28;20483;-87
2024/01/30 05:50:44;;;;;;;22.92;10.82;;;;;;;0.93;100.00;99671.88;5066550;28;20030;-86
2024/01/30 05:53:10;;;;;;;22.08;9.10;;;;;;;0.97;100.00;99671.94;5089423;28;20055;-87
2024/01/30 05:55:36;;;;;;;22.77;9.00;;;;;;;0.97;100.00;99665.78;5072253;28;20062;-86
2024/01/30 05:58:01;;;;;;;18.80;8.30;;;;;;;0.88;100.00;99663.94;5075090;28;20024;-86
2024/01/30 06:00:30;;;;;;;32.45;15.50;;;;;;;1.04;100.00;99688.69;5065819;28;20107;-85
2024/01/30 06:02:56;;;;;;;20.48;10.25;;;;;;;1.02;100.00;99677.25;5092133;28;20523;-87
2024/01/30 06:05:24;;;;;;;26.70;13.25;;;;;;;1.03;100.00;99679.03;5057830;28;20024;-87
2024/01/30 06:07:50;;;;;;;21.30;10.02;;;;;;;0.99;100.00;99688.63;5060423;28;20024;-86
2024/01/30 06:10:15;;;;;;;38.22;13.32;;;;;;;0.99;100.00;99696.53;5085339;28;20031;-86
2024/01/30 06:12:46;;;;;;;22.75;11.10;;;;;;;0.58;100.00;99641.66;5057891;28;20037;-86
2024/01/30 06:15:12;;;;;;;27.38;11.80;;;;;;;0.91;100.00;99681.53;5074445;28;20039;-87
2024/01/30 06:17:38;;;;;;;25.70;10.77;;;;;;;0.84;100.00;99666.53;5073790;28;20085;-87
2024/01/30 06:20:05;;;;;;;23.27;9.90;;;;;;;0.69;100.00;99642.66;5073877;28;20028;-87
2024/01/30 06:22:31;;;;;;;23.55;12.15;;;;;;;0.82;100.00;99665.63;5067762;28;20025;-86
2024/01/30 06:24:59;;;;;;;27.60;12.90;;;;;;;0.90;100.00;99677.13;5062798;28;20048;-85
2024/01/30 06:27:25;;;;;;;34.47;12.70;;;;;;;0.88;100.00;99684.13;5066794;28;20051;-87
2024/01/30 06:29:50;;;;;;;32.47;14.18;;;;;;;0.94;100.00;99692.09;5058684;28;20067;-86
2024/01/30 06:32:16;;;;;;;52.15;16.13;;;;;;;0.95;100.00;99693.88;5070156;28;20029;-88
2024/01/30 06:34:44;;;;;;;34.38;15.05;;;;;;;0.94;100.00;99677.19;5065180;28;20060;-86
2024/01/30 06:37:09;;;;;;;29.13;13.00;;;;;;;1.08;100.00;99680.81;5060846;28;20028;-85
2024/01/30 06:39:35;;;;;;;44.05;20.30;;;;;;;1.15;100.00;99694.94;5073415;28;20027;-85
2024/01/30 06:42:01;;;;;;;32.50;12.50;;;;;;;1.15;100.00;99694.94;5067391;28;20024;-83
2024/01/30 06:44:26;;;;;;;27.35;10.90;;;;;;;1.05;100.00;99695.72;5057451;28;20028;-82
2024/01/30 06:46:52;;;;;;;29.00;11.48;;;;;;;1.02;100.00;99706.22;5065230;28;20047;-85
2024/01/30 06:49:17;;;;;;;22.70;10.98;;;;;;;0.97;100.00;99687.75;5061672;28;20028;-86
2024/01/30 06:51:43;;;;;;;34.30;14.38;;;;;;;1.09;100.00;99708.06;5072559;28;20047;-85
2024/01/30 06:54:09;;;;;;;29.25;12.32;;;;;;;1.07;100.00;99705.44;5075723;28;20094;-85
2024/01/30 06:56:35;;;;;;;31.58;12.60;;;;;;;1.15;100.00;99708.13;5056891;28;20032;-86
2024/01/30 06:59:01;;;;;;;24.15;11.15;;;;;;;1.06;100.00;99703.66;5061389;28;20020;-84
2024/01/30 07:01:29;;;;;;;28.25;12.65;;;;;;;1.22;100.00;99704.69;5060996;28;20085;-86
2024/01/30 07:03:55;;;;;;;34.83;14.63;;;;;;;1.35;100.00;99708.34;5065049;28;20107;-85
2024/01/30 07:06:22;;;;;;;43.38;13.57;;;;;;;1.36;100.00;99705.69;5069760;28;20066;-86
2024/01/30 07:08:48;;;;;;;22.15;11.13;;;;;;;1.33;100.00;99684.59;5085708;28;20039;-85
2024/01/30 07:11:24;;;;;;;19.77;9.10;;;;;;;1.43;100.00;99704.00;5073020;28;20024;-84
2024/01/30 07:13:53;;;;;;;23.25;9.50;;;;;;;1.57;100.00;99690.06;5073548;28;20408;-86
2024/01/30 07:16:19;;;;;;;23.60;10.43;;;;;;;1.85;100.00;99698.19;5061527;28;20035;-86
2024/01/30 07:18:45;;;;;;;23.90;10.60;;;;;;;1.95;100.00;99706.19;5071161;28;20028;-86
2024/01/30 07:21:11;;;;;;;35.35;10.95;;;;;;;2.01;100.00;99694.78;5069300;28;20062;-85
2024/01/30 07:23:38;;;;;;;25.60;10.93;;;;;;;2.11;100.00;99691.34;5089117;28;20103;-85
2024/01/30 07:26:06;;;;;;;34.83;13.57;;;;;;;2.40;100.00;99695.00;5071841;28;20504;-84
2024/01/30 07:28:32;;;;;;;30.10;13.52;;;;;;;2.46;100.00;99665.97;5068864;28;20040;-86
2024/01/30 07:30:57;;;;;;;34.17;11.68;;;;;;;2.84;100.00;99683.75;5064070;28;20028;-86
2024/01/30 07:33:23;;;;;;;21.20;9.95;;;;;;;2.77;100.00;99674.06;5060070;28;20019;-85
2024/01/30 07:35:49;;;;;;;25.25;10.82;;;;;;;2.82;100.00;99661.72;5058021;28;20385;-85
2024/01/30 07:38:14;;;;;;;19.88;9.82;;;;;;;2.83;100.00;99684.63;5064738;28;20032;-85
2024/01/30 07:40:41;;;;;;;18.75;9.52;;;;;;;2.92;100.00;99679.38;5065418;28;20081;-85
2024/01/30 07:43:06;;;;;;;25.63;10.38;;;;;;;3.06;100.00;99682.91;5067811;28;20156;-85
2024/01/30 07:45:35;;;;;;;24.30;10.02;;;;;;;2.98;100.00;99676.75;5067432;28;20516;-86
2024/01/30 07:48:06;;;;;;;27.27;11.57;;;;;;;3.07;100.00;99663.53;5056436;28;20088;-86
2024/01/30 07:50:32;;;;;;;32.22;12.25;;;;;;;3.21;100.00;99672.38;5083403;28;20512;-85
2024/01/30 07:52:59;;;;;;;22.25;9.85;;;;;;;3.09;100.00;99667.06;5072252;28;21198;-85
2024/01/30 07:55:28;;;;;;;31.48;11.52;;;;;;;3.31;100.00;99679.44;5066982;28;20028;-84
2024/01/30 07:57:57;;;;;;;27.88;10.55;;;;;;;3.25;100.00;99680.31;5074773;28;20031;-86
2024/01/30 08:00:23;;;;;;;22.63;9.73;;;;;;;3.04;100.00;99656.50;5068709;28;20036;-85
2024/01/30 08:02:48;;;;;;;17.75;8.00;;;;;;;3.21;100.00;99675.00;5062965;28;20036;-85
2024/01/30 08:05:15;;;;;;;18.58;8.32;;;;;;;3.31;100.00;99665.34;5064197;28;20035;-86
2024/01/30 08:07:47;;;;;;;13.52;6.97;;;;;;;3.24;100.00;99656.50;5073208;28;20043;-86
2024/01/30 08:10:13;;;;;;;18.02;7.15;;;;;;;3.33;100.00;99672.38;5066010;28;20120;-85
2024/01/30 08:12:39;;;;;;;14.38;6.68;;;;;;;3.39;100.00;99655.63;5056609;28;20063;-85
2024/01/30 08:15:05;;;;;;;21.15;7.85;;;;;;;3.35;100.00;99660.06;5062507;28;20036;-85
2024/01/30 08:17:31;;;;;;;16.35;6.93;;;;;;;3.39;100.00;99639.75;5072672;28;20121;-85
2024/01/30 08:19:56;;;;;;;16.13;6.40;;;;;;;3.64;100.00;99671.53;5073665;28;20078;-86
2024/01/30 08:22:22;;;;;;;14.77;7.35;;;;;;;3.66;100.00;99661.81;5076198;28;20032;-86
2024/01/30 08:24:48;;;;;;;15.15;6.38;;;;;;;3.65;100.00;99652.13;5068082;28;20047;-86
2024/01/30 08:27:13;;;;;;;10.20;5.10;;;;;;;3.49;100.00;99660.94;5065248;28;20428;-86
2024/01/30 08:29:39;;;;;;;8.45;4.43;;;;;;;3.48;100.00;99645.94;5064614;28;20089;-87
2024/01/30 08:32:06;;;;;;;11.13;5.72;;;;;;;3.45;100.00;99603.63;5064953;28;20039;-86
2024/01/30 08:34:32;;;;;;;11.23;4.97;;;;;;;3.66;100.00;99645.94;5064419;28;20028;-86
2024/01/30 08:36:57;;;;;;;8.75;4.65;;;;;;;3.65;100.00;99641.53;5064857;28;20095;-86
2024/01/30 08:39:23;;;;;;;7.95;4.05;;;;;;;3.87;100.00;99650.34;5064496;28;20032;-87
2024/01/30 08:41:49;;;;;;;12.40;4.50;;;;;;;3.89;100.00;99622.09;5074009;28;20086;-85
2024/01/30 08:44:14;;;;;;;10.50;5.50;;;;;;;4.37;99.87;99650.19;5070218;28;20035;-86
2024/01/30 08:46:40;;;;;;;21.52;5.82;;;;;;;4.60;92.95;99640.38;5068184;28;20032;-84
2024/01/30 08:49:06;;;;;;;7.85;4.03;;;;;;;4.57;90.38;99637.75;5064007;28;20024;-86
2024/01/30 08:51:31;;;;;;;13.30;5.57;;;;;;;4.76;87.31;99639.44;5055263;28;20543;-86
2024/01/30 08:53:57;;;;;;;7.65;4.10;;;;;;;4.72;83.81;99631.50;5068169;28;20059;-86
2024/01/30 08:56:23;;;;;;;10.40;4.90;;;;;;;4.99;78.05;99628.69;5069226;28;20127;-85
2024/01/30 08:58:48;;;;;;;19.65;6.47;;;;;;;4.79;77.24;99628.81;5088580;28;20032;-85
2024/01/30 09:01:14;;;;;;;16.52;5.90;;;;;;;4.68;76.69;99627.97;5076342;28;20028;-85
2024/01/30 09:03:41;;;;;;;15.73;4.55;;;;;;;4.66;74.17;99635.06;5085292;28;20095;-86
2024/01/30 09:06:13;;;;;;;7.40;3.55;;;;;;;4.26;74.10;99621.09;5059216;28;20032;-84
2024/01/30 09:08:39;;;;;;;5.07;3.15;;;;;;;4.10;77.02;99631.72;5073809;28;20195;-86
2024/01/30 09:11:13;;;;;;;17.02;5.90;;;;;;;4.15;77.93;99636.13;5072750;28;20126;-87
2024/01/30 09:13:38;;;;;;;7.75;3.53;;;;;;;4.14;76.34;99638.78;5068945;28;20048;-86
2024/01/30 09:16:04;;;;;;;16.15;6.45;;;;;;;4.15;77.88;99629.97;5064662;28;20086;-85
2024/01/30 09:18:30;;;;;;;8.07;4.10;;;;;;;4.29;76.16;99621.09;5057160;28;20020;-85
2024/01/30 09:20:56;;;;;;;10.85;4.10;;;;;;;4.25;75.79;99606.09;5065181;28;20024;-84
2024/01/30 09:23:22;;;;;;;15.43;3.83;;;;;;;4.42;75.98;99626.34;5061673;28;20103;-85
2024/01/30 09:25:48;;;;;;;16.58;5.18;;;;;;;4.28;76.03;99613.13;5061198;28;20040;-86
2024/01/30 09:28:13;;;;;;;9.30;3.10;;;;;;;4.16;74.74;99594.63;5071180;28;20112;-86
2024/01/30 09:30:39;;;;;;;5.35;2.65;;;;;;;4.27;73.28;99619.34;5089009;28;20039;-85
2024/01/30 09:33:05;;;;;;;7.20;2.80;;;;;;;4.64;71.22;99615.66;5072733;28;20027;-84
2024/01/30 09:35:31;;;;;;;6.45;3.08;;;;;;;4.59;69.12;99596.22;5066232;28;20441;-85
2024/01/30 09:37:58;;;;;;;13.60;3.38;;;;;;;4.98;67.42;99596.88;5073084;28;20077;-85
2024/01/30 09:40:27;;;;;;;14.55;4.70;;;;;;;4.86;66.99;99585.44;5072885;28;20032;-86
2024/01/30 09:42:54;;;;;;;10.20;3.78;;;;;;;4.90;65.63;99605.75;5072720;28;20077;-85
2024/01/30 09:45:21;;;;;;;4.18;2.83;;;;;;;4.86;63.32;99590.75;5063338;28;20042;-85
2024/01/30 09:47:46;;;;;;;10.90;2.83;;;;;;;4.47;61.60;99575.09;5068316;28;20407;-85
2024/01/30 09:50:14;;;;;;;9.20;2.80;;;;;;;4.51;61.69;99599.81;5058371;28;20036;-86
2024/01/30 09:52:47;;;;;;;5.40;2.85;;;;;;;4.72;61.54;99595.28;5067595;28;20543;-86
2024/01/30 09:55:13;;;;;;;11.82;4.03;;;;;;;4.91;61.98;99583.66;5064288;28;20036;-85
2024/01/30 09:57:39;;;;;;;9.20;3.30;;;;;;;5.05;60.60;99550.84;5061975;28;20051;-85
2024/01/30 10:00:09;;;;;;;10.82;4.03;;;;;;;5.39;59.26;99581.50;5070824;28;20028;-85
2024/01/30 10:02:36;;;;;;;17.73;5.07;;;;;;;4.79;58.96;99578.44;5083385;28;20106;-85
2024/01/30 10:05:01;;;;;;;13.00;4.80;;;;;;;4.64;60.36;99580.31;5083283;28;20058;-86
2024/01/30 10:07:27;;;;;;;18.95;6.82;;;;;;;4.74;60.24;99585.53;5069183;28;20044;-85
2024/01/30 10:09:55;;;;;;;17.45;6.80;;;;;;;4.48;61.12;99591.88;5056398;28;20127;-85
2024/01/30 10:12:20;;;;;;;6.95;3.72;;;;;;;4.58;61.16;99583.88;5063540;28;20107;-85
2024/01/30 10:14:46;;;;;;;7.45;3.42;;;;;;;4.42;61.69;99582.19;5062923;28;20040;-86
2024/01/30 10:17:12;;;;;;;6.40;3.47;;;;;;;4.59;60.77;99585.63;5081876;28;20067;-85
2024/01/30 10:19:38;;;;;;;4.97;2.88;;;;;;;4.38;61.45;99585.72;5060989;28;20501;-86
2024/01/30 10:22:04;;;;;;;17.13;7.28;;;;;;;4.27;63.22;99579.59;5061172;28;20431;-86
2024/01/30 10:24:30;;;;;;;10.48;5.10;;;;;;;4.45;62.78;99587.47;5067699;28;20056;-85
2024/01/30 10:26:58;;;;;;;7.72;3.20;;;;;;;4.52;63.20;99589.22;5078396;28;20036;-85
2024/01/30 10:29:24;;;;;;;4.75;2.83;;;;;;;4.42;62.62;99576.00;5057152;28;20036;-85
2024/01/30 10:32:00;;;;;;;5.68;2.88;;;;;;;4.89;59.79;99582.78;5052907;28;20032;-84
2024/01/30 10:34:26;;;;;;;6.70;3.10;;;;;;;5.08;59.40;99577.34;5062851;28;20052;-86
2024/01/30 10:37:12;;;;;;;11.02;3.33;;;;;;;5.39;58.98;99565.59;5054654;28;20749;-84
2024/01/30 10:39:40;;;;;;;7.03;3.65;;;;;;;5.04;59.13;99557.06;5053794;28;20024;-84
2024/01/30 10:42:06;;;;;;;5.38;2.63;;;;;;;5.30;58.65;99569.22;5061079;28;20520;-85
2024/01/30 10:45:12;;;;;;;4.90;2.60;;;;;;;6.00;57.33;99555.25;5061526;28;20055;-84
2024/01/30 10:47:40;;;;;;;7.25;3.40;;;;;;;5.95;55.85;99554.44;5040943;28;20054;-85
2024/01/30 10:50:08;;;;;;;8.68;3.40;;;;;;;5.60;56.95;99556.56;5057316;28;20048;-85
2024/01/30 10:52:33;;;;;;;12.55;4.75;;;;;;;5.63;57.24;99548.56;5059653;28;20036;-85
2024/01/30 10:54:59;;;;;;;15.77;5.78;;;;;;;5.72;56.77;99528.09;5064457;28;20084;-85
2024/01/30 10:57:26;;;;;;;14.15;4.82;;;;;;;5.43;57.64;99551.41;5067364;28;20118;-85
2024/01/30 11:00:05;;;;;;;9.90;4.68;;;;;;;5.20;58.23;99548.09;5068259;28;20028;-84
2024/01/30 11:02:32;;;;;;;12.30;5.20;;;;;;;5.06;59.94;99555.25;5074441;28;20031;-85
2024/01/30 11:04:59;;;;;;;31.48;9.02;;;;;;;4.78;60.17;99543.97;5060209;28;20039;-85
2024/01/30 11:07:29;;;;;;;9.60;4.65;;;;;;;4.74;60.83;99552.84;5065616;28;20073;-86
2024/01/30 11:09:58;;;;;;;8.98;4.00;;;;;;;4.93;61.09;99551.81;5063938;28;20032;-86
2024/01/30 11:12:24;;;;;;;6.45;3.33;;;;;;;4.86;61.71;99542.16;5073392;28;20112;-84
2024/01/30 11:15:01;;;;;;;9.40;3.50;;;;;;;4.68;61.92;99545.81;5063610;28;20024;-87
2024/01/30 11:17:28;;;;;;;8.48;4.03;;;;;;;4.71;63.63;99543.13;5064673;28;20052;-86
2024/01/30 11:19:53;;;;;;;8.63;4.28;;;;;;;4.67;64.72;99549.38;5068882;28;20024;-85
2024/01/30 11:22:20;;;;;;;13.40;5.03;;;;;;;4.94;63.27;99550.94;5065338;28;20090;-87
2024/01/30 11:24:47;;;;;;;9.77;4.68;;;;;;;4.71;63.47;99543.13;5072124;28;20044;-85